createdAt,value
2022-08-28T00:00:13.366Z,61.46
2022-08-28T00:02:40.588Z,61.13
2022-08-28T00:05:08.370Z,61.53
2022-08-28T00:07:35.439Z,61.20
2022-08-28T00:10:02.216Z,61.19
2022-08-28T00:12:28.805Z,61.46
2022-08-28T00:14:55.331Z,61.51
2022-08-28T00:17:21.937Z,61.16
2022-08-28T00:19:48.613Z,61.24
2022-08-28T00:22:15.200Z,61.65
2022-08-28T00:24:43.099Z,61.30
2022-08-28T00:27:28.126Z,61.25
2022-08-28T00:29:54.817Z,61.25
2022-08-28T00:32:23.566Z,61.27
2022-08-28T00:34:51.115Z,61.32
2022-08-28T00:37:20.169Z,61.67
2022-08-28T00:39:51.568Z,61.52
2022-08-28T00:42:18.442Z,61.20
2022-08-28T00:44:45.455Z,61.32
2022-08-28T00:47:12.578Z,61.12
2022-08-28T00:49:46.302Z,61.27
2022-08-28T00:52:15.412Z,61.13
2022-08-28T00:55:03.449Z,61.20
2022-08-28T00:57:42.344Z,61.57
2022-08-28T01:00:15.519Z,61.11
2022-08-28T01:02:42.301Z,61.44
2022-08-28T01:05:10.369Z,61.55
2022-08-28T01:07:38.316Z,61.60
2022-08-28T01:10:09.101Z,61.13
2022-08-28T01:12:35.946Z,61.13
2022-08-28T01:15:09.400Z,61.29
2022-08-28T01:17:36.126Z,61.47
2022-08-28T01:20:10.732Z,61.29
2022-08-28T01:22:54.056Z,61.06
2022-08-28T01:25:22.344Z,61.07
2022-08-28T01:27:48.905Z,60.57
2022-08-28T01:30:17.838Z,61.03
2022-08-28T01:32:47.627Z,61.05
2022-08-28T01:35:17.834Z,61.14
2022-08-28T01:37:45.712Z,61.39
2022-08-28T01:40:16.109Z,61.16
2022-08-28T01:42:43.540Z,61.12
2022-08-28T01:45:14.478Z,60.70
2022-08-28T01:47:43.715Z,61.22
2022-08-28T01:50:13.009Z,60.98
2022-08-28T01:52:40.413Z,61.15
2022-08-28T01:55:08.126Z,61.50
2022-08-28T01:57:35.656Z,61.63
2022-08-28T02:00:02.484Z,61.36
2022-08-28T02:02:29.252Z,61.52
2022-08-28T02:04:55.803Z,61.50
2022-08-28T02:07:22.481Z,62.02
2022-08-28T02:09:49.075Z,61.77
2022-08-28T02:12:15.719Z,61.71
2022-08-28T02:14:42.372Z,62.14
2022-08-28T02:17:08.871Z,61.76
2022-08-28T02:19:35.462Z,61.79
2022-08-28T02:22:04.003Z,61.40
2022-08-28T02:24:30.612Z,61.10
2022-08-28T02:26:57.167Z,61.03
2022-08-28T02:29:23.793Z,61.05
2022-08-28T02:31:50.473Z,60.80
2022-08-28T02:34:17.346Z,60.71
2022-08-28T02:36:43.937Z,61.21
2022-08-28T02:39:10.593Z,61.20
2022-08-28T02:41:37.501Z,61.05
2022-08-28T02:44:04.174Z,60.58
2022-08-28T02:46:30.814Z,60.68
2022-08-28T02:48:57.446Z,60.85
2022-08-28T02:51:24.111Z,60.90
2022-08-28T02:53:52.150Z,61.34
2022-08-28T02:56:18.936Z,61.14
2022-08-28T02:58:45.657Z,61.06
2022-08-28T03:01:13.699Z,61.25
2022-08-28T03:03:41.615Z,61.60
2022-08-28T03:06:09.831Z,61.57
2022-08-28T03:08:38.943Z,61.96
2022-08-28T03:11:06.800Z,61.61
2022-08-28T03:13:33.407Z,61.58
2022-08-28T03:16:00.083Z,61.90
2022-08-28T03:18:30.306Z,61.60
2022-08-28T03:20:57.040Z,61.64
2022-08-28T03:23:26.775Z,61.73
2022-08-28T03:26:03.073Z,61.77
2022-08-28T03:28:33.383Z,61.52
2022-08-28T03:31:00.205Z,60.96
2022-08-28T03:33:27.617Z,61.18
2022-08-28T03:35:55.578Z,60.93
2022-08-28T03:38:22.452Z,60.92
2022-08-28T03:40:52.382Z,60.91
2022-08-28T03:43:22.857Z,61.29
2022-08-28T03:45:59.907Z,61.38
2022-08-28T03:48:27.761Z,61.04
2022-08-28T03:50:55.395Z,60.98
2022-08-28T03:53:23.893Z,61.28
2022-08-28T03:55:50.508Z,60.86
2022-08-28T03:58:18.854Z,60.72
2022-08-28T04:00:46.341Z,60.49
2022-08-28T04:03:13.640Z,60.65
2022-08-28T04:05:41.621Z,60.58
2022-08-28T04:08:08.420Z,60.57
2022-08-28T04:10:35.905Z,60.70
2022-08-28T04:13:03.365Z,60.74
2022-08-28T04:15:29.948Z,61.16
2022-08-28T04:17:56.571Z,61.26
2022-08-28T04:20:23.167Z,61.02
2022-08-28T04:22:50.020Z,61.10
2022-08-28T04:25:22.633Z,60.80
2022-08-28T04:27:50.297Z,60.88
2022-08-28T04:30:17.575Z,60.84
2022-08-28T04:32:45.686Z,61.13
2022-08-28T04:35:13.391Z,60.94
2022-08-28T04:37:40.481Z,60.97
2022-08-28T04:40:11.240Z,60.67
2022-08-28T04:42:38.716Z,60.74
2022-08-28T04:45:06.317Z,60.61
2022-08-28T04:47:37.268Z,60.55
2022-08-28T04:50:04.926Z,61.00
2022-08-28T04:52:31.512Z,60.97
2022-08-28T04:54:58.051Z,61.19
2022-08-28T04:57:26.275Z,61.47
2022-08-28T04:59:52.980Z,61.65
2022-08-28T05:02:19.664Z,61.47
2022-08-28T05:04:47.298Z,61.59
2022-08-28T05:07:14.032Z,61.71
2022-08-28T05:09:40.586Z,61.99
2022-08-28T05:12:07.229Z,61.83
2022-08-28T05:14:34.059Z,61.52
2022-08-28T05:17:00.633Z,61.69
2022-08-28T05:19:28.236Z,61.80
2022-08-28T05:21:55.297Z,61.76
2022-08-28T05:24:22.458Z,61.55
2022-08-28T05:26:49.224Z,61.46
2022-08-28T05:29:16.990Z,61.87
2022-08-28T05:31:44.005Z,61.77
2022-08-28T05:34:10.753Z,61.47
2022-08-28T05:36:38.687Z,61.87
2022-08-28T05:39:08.326Z,61.93
2022-08-28T05:41:34.993Z,61.79
2022-08-28T05:44:06.447Z,61.36
2022-08-28T05:46:35.117Z,61.37
2022-08-28T05:49:09.075Z,61.39
2022-08-28T05:51:36.828Z,61.14
2022-08-28T05:54:03.838Z,61.28
2022-08-28T05:56:34.432Z,61.57
2022-08-28T05:59:02.301Z,61.48
2022-08-28T06:01:31.280Z,61.13
2022-08-28T06:04:00.612Z,61.47
2022-08-28T06:06:30.834Z,61.26
2022-08-28T06:08:59.624Z,61.77
2022-08-28T06:11:30.487Z,61.85
2022-08-28T06:14:03.186Z,61.87
2022-08-28T06:16:31.903Z,61.53
2022-08-28T06:18:59.070Z,61.74
2022-08-28T06:21:26.163Z,61.66
2022-08-28T06:23:52.879Z,61.97
2022-08-28T06:26:19.440Z,61.81
2022-08-28T06:28:46.078Z,61.71
2022-08-28T06:31:23.461Z,61.83
2022-08-28T06:33:54.166Z,61.91
2022-08-28T06:36:21.084Z,61.80
2022-08-28T06:38:47.619Z,61.60
2022-08-28T06:41:15.644Z,61.42
2022-08-28T06:43:42.999Z,61.30
2022-08-28T06:46:09.743Z,61.23
2022-08-28T06:48:36.601Z,61.39
2022-08-28T06:51:06.532Z,61.25
2022-08-28T06:53:33.912Z,61.59
2022-08-28T06:56:18.426Z,61.29
2022-08-28T06:58:54.539Z,61.21
2022-08-28T07:01:24.406Z,61.33
2022-08-28T07:03:53.377Z,60.66
2022-08-28T07:06:21.718Z,60.81
2022-08-28T07:08:48.790Z,60.52
2022-08-28T07:11:26.060Z,60.18
2022-08-28T07:13:54.120Z,60.25
2022-08-28T07:16:23.243Z,60.16
2022-08-28T07:18:50.186Z,60.31
2022-08-28T07:21:17.446Z,59.68
2022-08-28T07:23:44.956Z,59.56
2022-08-28T07:26:14.309Z,59.54
2022-08-28T07:28:41.462Z,59.12
2022-08-28T07:31:11.504Z,58.85
2022-08-28T07:33:39.755Z,58.88
2022-08-28T07:36:09.088Z,59.01
2022-08-28T07:38:42.831Z,58.80
2022-08-28T07:41:14.238Z,58.79
2022-08-28T07:43:59.837Z,58.87
2022-08-28T07:46:26.541Z,58.51
2022-08-28T07:48:53.838Z,58.39
2022-08-28T07:51:20.918Z,58.29
2022-08-28T07:53:47.661Z,58.11
2022-08-28T07:56:14.392Z,57.72
2022-08-28T07:58:40.988Z,57.38
2022-08-28T08:01:07.696Z,57.43
2022-08-28T08:03:34.590Z,57.33
2022-08-28T08:06:03.839Z,57.07
2022-08-28T08:08:31.774Z,56.93
2022-08-28T08:11:01.468Z,57.03
2022-08-28T08:13:29.613Z,57.43
2022-08-28T08:16:06.607Z,57.39
2022-08-28T08:18:33.810Z,57.41
2022-08-28T08:21:01.608Z,57.35
2022-08-28T08:23:28.296Z,57.61
2022-08-28T08:26:00.706Z,57.36
2022-08-28T08:28:28.478Z,57.12
2022-08-28T08:31:13.389Z,56.96
2022-08-28T08:33:44.721Z,56.83
2022-08-28T08:36:13.224Z,56.59
2022-08-28T08:38:39.776Z,56.48
2022-08-28T08:41:30.577Z,56.48
2022-08-28T08:44:03.101Z,56.43
2022-08-28T08:46:44.768Z,56.40
2022-08-28T08:49:17.149Z,56.58
2022-08-28T08:51:50.704Z,56.69
2022-08-28T08:54:21.201Z,56.82
2022-08-28T08:56:48.276Z,56.95
2022-08-28T08:59:21.588Z,56.84
2022-08-28T09:01:56.251Z,56.71
2022-08-28T09:04:34.440Z,56.60
2022-08-28T09:07:20.999Z,56.52
2022-08-28T09:09:53.094Z,56.85
2022-08-28T09:12:23.102Z,57.00
2022-08-28T09:15:05.871Z,57.32
2022-08-28T09:17:37.462Z,57.25
2022-08-28T09:20:09.692Z,57.49
2022-08-28T09:22:40.968Z,57.67
2022-08-28T09:25:07.841Z,57.73
2022-08-28T09:27:44.829Z,57.71
2022-08-28T09:30:11.725Z,57.47
2022-08-28T09:32:44.505Z,57.62
2022-08-28T09:35:15.632Z,57.52
2022-08-28T09:37:43.996Z,57.42
2022-08-28T09:40:18.899Z,57.14
2022-08-28T09:43:21.130Z,56.98
2022-08-28T09:46:01.808Z,56.69
2022-08-28T09:48:37.044Z,56.73
2022-08-28T09:51:13.762Z,56.87
2022-08-28T09:53:52.497Z,57.09
2022-08-28T09:56:22.913Z,57.67
2022-08-28T09:58:52.104Z,57.77
2022-08-28T10:01:46.669Z,57.82
2022-08-28T10:04:45.438Z,57.52
2022-08-28T10:07:33.931Z,57.67
2022-08-28T10:10:21.886Z,57.97
2022-08-28T10:13:06.675Z,58.04
2022-08-28T10:15:43.110Z,58.13
2022-08-28T10:18:30.660Z,58.22
2022-08-28T10:21:35.495Z,58.20
2022-08-28T10:24:35.083Z,58.46
2022-08-28T10:27:22.750Z,58.49
2022-08-28T10:30:12.361Z,58.69
2022-08-28T10:33:09.971Z,58.61
2022-08-28T10:35:57.280Z,58.64
2022-08-28T10:38:42.145Z,58.01
2022-08-28T10:41:17.504Z,57.71
2022-08-28T10:43:48.108Z,57.56
2022-08-28T10:46:17.838Z,57.53
2022-08-28T10:48:55.736Z,57.26
2022-08-28T10:51:44.437Z,57.16
2022-08-28T10:54:23.536Z,57.33
2022-08-28T10:56:59.118Z,57.41
2022-08-28T10:59:27.052Z,57.49
2022-08-28T11:02:04.593Z,57.30
2022-08-28T11:04:31.348Z,57.11
2022-08-28T11:07:06.061Z,57.03
2022-08-28T11:09:46.305Z,56.73
2022-08-28T11:12:19.873Z,56.65
2022-08-28T11:14:49.531Z,56.90
2022-08-28T11:17:22.240Z,56.92
2022-08-28T11:20:03.866Z,57.12
2022-08-28T11:22:53.002Z,57.08
2022-08-28T11:25:26.335Z,56.93
2022-08-28T11:28:13.525Z,56.18
2022-08-28T11:30:41.130Z,55.47
2022-08-28T11:33:11.837Z,55.05
2022-08-28T11:35:49.182Z,54.96
2022-08-28T11:38:41.412Z,54.54
2022-08-28T11:41:21.022Z,54.40
2022-08-28T11:43:49.644Z,54.68
2022-08-28T11:46:17.500Z,54.71
2022-08-28T11:48:49.816Z,55.17
2022-08-28T11:51:52.385Z,55.54
2022-08-28T11:54:57.478Z,55.71
2022-08-28T11:57:42.750Z,55.67
2022-08-28T12:00:46.453Z,56.19
2022-08-28T12:03:39.354Z,56.51
2022-08-28T12:06:07.453Z,57.10
2022-08-28T12:08:47.708Z,57.14
2022-08-28T12:11:39.417Z,57.10
2022-08-28T12:14:20.343Z,57.22
2022-08-28T12:16:59.133Z,57.38
2022-08-28T12:19:55.941Z,56.62
2022-08-28T12:22:42.379Z,56.31
2022-08-28T12:25:20.705Z,56.33
2022-08-28T12:27:48.288Z,56.29
2022-08-28T12:30:28.334Z,56.77
2022-08-28T12:32:59.626Z,57.02
2022-08-28T12:35:29.569Z,57.02
2022-08-28T12:37:57.399Z,56.65
2022-08-28T12:40:50.413Z,56.08
2022-08-28T12:43:43.288Z,55.32
2022-08-28T12:46:21.098Z,54.66
2022-08-28T12:48:51.809Z,54.26
2022-08-28T12:51:24.041Z,54.34
2022-08-28T12:53:53.688Z,54.71
2022-08-28T12:56:21.745Z,54.78
2022-08-28T12:58:49.330Z,54.43
2022-08-28T13:01:31.858Z,54.36
2022-08-28T13:04:04.272Z,54.36
2022-08-28T13:06:33.530Z,53.74
2022-08-28T13:09:06.751Z,53.94
2022-08-28T13:11:43.483Z,53.95
2022-08-28T13:14:10.278Z,53.69
2022-08-28T13:16:43.499Z,53.54
2022-08-28T13:19:11.753Z,53.48
2022-08-28T13:21:52.596Z,53.49
2022-08-28T13:24:22.154Z,53.89
2022-08-28T13:27:18.012Z,54.05
2022-08-28T13:29:57.395Z,54.36
2022-08-28T13:32:27.662Z,54.45
2022-08-28T13:35:04.432Z,54.40
2022-08-28T13:37:51.491Z,54.61
2022-08-28T13:40:53.182Z,54.80
2022-08-28T13:43:10.999Z,54.67
2022-08-28T13:45:43.199Z,54.78
2022-08-28T13:48:12.497Z,54.58
2022-08-28T13:50:41.817Z,54.64
2022-08-28T13:53:13.157Z,54.61
2022-08-28T13:55:41.175Z,54.74
2022-08-28T13:58:07.832Z,54.38
2022-08-28T14:00:37.619Z,54.39
2022-08-28T14:03:23.095Z,54.32
2022-08-28T14:05:49.737Z,54.79
2022-08-28T14:08:16.520Z,54.50
2022-08-28T14:10:43.234Z,54.61
2022-08-28T14:13:09.979Z,55.11
2022-08-28T14:15:36.573Z,55.01
2022-08-28T14:18:03.369Z,55.10
2022-08-28T14:20:30.466Z,54.88
2022-08-28T14:22:57.469Z,54.67
2022-08-28T14:25:24.097Z,54.81
2022-08-28T14:27:50.835Z,54.89
2022-08-28T14:30:17.808Z,55.25
2022-08-28T14:32:44.487Z,55.27
2022-08-28T14:35:11.519Z,55.18
2022-08-28T14:37:38.164Z,55.14
2022-08-28T14:40:06.103Z,55.33
2022-08-28T14:42:32.833Z,55.31
2022-08-28T14:44:59.404Z,55.29
2022-08-28T14:47:26.147Z,55.32
2022-08-28T14:49:55.610Z,55.21
2022-08-28T14:52:22.884Z,55.10
2022-08-28T14:54:49.791Z,55.55
2022-08-28T14:57:16.432Z,55.60
2022-08-28T14:59:43.596Z,54.88
2022-08-28T15:02:12.882Z,55.08
2022-08-28T15:04:39.625Z,55.30
2022-08-28T15:07:10.796Z,55.15
2022-08-28T15:09:40.884Z,55.14
2022-08-28T15:12:08.085Z,54.86
2022-08-28T15:14:36.006Z,55.14
2022-08-28T15:17:03.058Z,54.93
2022-08-28T15:19:30.100Z,55.40
2022-08-28T15:21:57.484Z,55.52
2022-08-28T15:24:28.649Z,55.85
2022-08-28T15:26:55.320Z,56.15
2022-08-28T15:29:22.265Z,56.22
2022-08-28T15:31:50.316Z,56.15
2022-08-28T15:34:19.859Z,56.36
2022-08-28T15:36:54.749Z,56.44
2022-08-28T15:39:41.339Z,56.75
2022-08-28T15:42:08.459Z,56.70
2022-08-28T15:44:35.098Z,56.75
2022-08-28T15:47:02.487Z,56.72
2022-08-28T15:49:32.236Z,56.97
2022-08-28T15:52:03.557Z,57.27
2022-08-28T15:54:32.171Z,57.55
2022-08-28T15:56:59.067Z,57.74
2022-08-28T15:59:25.859Z,57.87
2022-08-28T16:02:12.805Z,58.08
2022-08-28T16:04:39.735Z,58.53
2022-08-28T16:07:09.445Z,58.37
2022-08-28T16:09:36.371Z,58.41
2022-08-28T16:12:03.212Z,57.94
2022-08-28T16:14:32.997Z,57.62
2022-08-28T16:16:59.949Z,57.44
2022-08-28T16:19:32.971Z,57.63
2022-08-28T16:22:00.232Z,57.48
2022-08-28T16:24:26.822Z,57.36
2022-08-28T16:26:53.699Z,57.35
2022-08-28T16:29:21.056Z,57.59
2022-08-28T16:31:49.042Z,58.12
2022-08-28T16:34:19.413Z,58.35
2022-08-28T16:36:50.475Z,58.68
2022-08-28T16:39:17.553Z,58.83
2022-08-28T16:41:49.707Z,59.20
2022-08-28T16:44:21.174Z,59.26
2022-08-28T16:46:47.956Z,59.41
2022-08-28T16:49:15.058Z,59.82
2022-08-28T16:51:44.803Z,59.70
2022-08-28T16:54:11.612Z,59.72
2022-08-28T16:56:38.761Z,59.85
2022-08-28T16:59:10.478Z,59.53
2022-08-28T17:01:40.691Z,59.71
2022-08-28T17:04:09.606Z,59.47
2022-08-28T17:06:36.565Z,59.87
2022-08-28T17:09:03.916Z,59.94
2022-08-28T17:11:31.079Z,59.65
2022-08-28T17:13:58.861Z,59.88
2022-08-28T17:16:34.349Z,59.74
2022-08-28T17:19:01.276Z,59.97
2022-08-28T17:21:46.908Z,60.32
2022-08-28T17:24:14.045Z,60.14
2022-08-28T17:26:42.417Z,60.16
2022-08-28T17:29:09.601Z,60.17
2022-08-28T17:31:37.630Z,60.00
2022-08-28T17:34:05.695Z,60.07
2022-08-28T17:36:34.289Z,59.85
2022-08-28T17:39:08.130Z,59.92
2022-08-28T17:41:35.301Z,59.63
2022-08-28T17:44:02.331Z,59.84
2022-08-28T17:46:31.880Z,59.74
2022-08-28T17:49:01.520Z,59.87
2022-08-28T17:51:36.904Z,60.03
2022-08-28T17:54:10.595Z,60.15
2022-08-28T17:56:37.371Z,60.52
2022-08-28T17:59:04.904Z,60.81
2022-08-28T18:01:31.862Z,60.99
2022-08-28T18:03:58.867Z,61.15
2022-08-28T18:06:25.945Z,61.20
2022-08-28T18:08:52.774Z,61.33
2022-08-28T18:11:19.875Z,61.14
2022-08-28T18:13:46.827Z,61.22
2022-08-28T18:16:13.790Z,61.21
2022-08-28T18:18:41.572Z,60.98
2022-08-28T18:21:12.297Z,61.21
2022-08-28T18:23:39.830Z,61.55
2022-08-28T18:26:09.676Z,61.31
2022-08-28T18:28:36.896Z,61.33
2022-08-28T18:31:06.080Z,60.98
2022-08-28T18:33:33.466Z,60.92
2022-08-28T18:36:00.236Z,60.87
2022-08-28T18:38:28.520Z,60.67
2022-08-28T18:40:56.155Z,60.76
2022-08-28T18:43:24.053Z,60.94
2022-08-28T18:45:51.402Z,61.37
2022-08-28T18:48:19.256Z,61.83
2022-08-28T18:50:47.484Z,62.12
2022-08-28T18:53:19.389Z,62.32
2022-08-28T18:55:46.379Z,62.14
2022-08-28T18:58:15.236Z,61.74
2022-08-28T19:00:42.681Z,61.92
2022-08-28T19:03:09.713Z,62.05
2022-08-28T19:05:38.207Z,61.54
2022-08-28T19:08:06.083Z,61.89
2022-08-28T19:10:34.929Z,61.74
2022-08-28T19:13:02.481Z,61.65
2022-08-28T19:15:29.498Z,61.96
2022-08-28T19:17:56.128Z,62.15
2022-08-28T19:20:23.569Z,62.46
2022-08-28T19:22:50.182Z,62.56
2022-08-28T19:25:27.921Z,62.58
2022-08-28T19:27:56.337Z,62.67
2022-08-28T19:30:27.924Z,62.97
2022-08-28T19:32:54.851Z,62.81
2022-08-28T19:35:24.109Z,63.00
2022-08-28T19:37:54.414Z,62.87
2022-08-28T19:40:22.152Z,62.88
2022-08-28T19:42:50.126Z,62.68
2022-08-28T19:45:17.947Z,62.63
2022-08-28T19:47:44.649Z,62.66
2022-08-28T19:50:13.907Z,62.82
2022-08-28T19:52:40.731Z,62.92
2022-08-28T19:55:08.455Z,62.71
2022-08-28T19:57:35.035Z,62.48
2022-08-28T20:00:02.484Z,62.25
2022-08-28T20:02:29.464Z,61.75
2022-08-28T20:04:56.201Z,61.70
2022-08-28T20:07:24.911Z,62.02
2022-08-28T20:09:52.157Z,61.81
2022-08-28T20:12:18.965Z,61.64
2022-08-28T20:14:45.568Z,61.90
2022-08-28T20:17:14.003Z,61.83
2022-08-28T20:19:40.768Z,62.09
2022-08-28T20:22:07.337Z,61.97
2022-08-28T20:24:34.060Z,62.10
2022-08-28T20:27:01.875Z,61.65
2022-08-28T20:29:28.469Z,61.59
2022-08-28T20:31:55.003Z,61.54
2022-08-28T20:34:21.538Z,61.18
2022-08-28T20:36:49.747Z,61.61
2022-08-28T20:39:16.796Z,61.93
2022-08-28T20:41:44.727Z,61.93
2022-08-28T20:44:13.800Z,61.98
2022-08-28T20:46:42.105Z,62.04
2022-08-28T20:49:10.986Z,61.83
2022-08-28T20:51:53.854Z,61.88
2022-08-28T20:54:39.026Z,62.15
2022-08-28T20:57:10.974Z,62.07
2022-08-28T20:59:39.887Z,61.98
2022-08-28T21:02:17.041Z,61.68
2022-08-28T21:04:45.569Z,61.84
2022-08-28T21:07:13.731Z,61.61
2022-08-28T21:10:05.721Z,61.43
2022-08-28T21:12:27.581Z,61.18
2022-08-28T21:14:54.205Z,61.42
2022-08-28T21:17:29.170Z,61.52
2022-08-28T21:19:57.254Z,61.29
2022-08-28T21:22:23.785Z,61.01
2022-08-28T21:24:50.373Z,61.27
2022-08-28T21:27:18.700Z,61.40
2022-08-28T21:29:46.105Z,61.42
2022-08-28T21:32:12.941Z,61.77
2022-08-28T21:34:39.551Z,61.98
2022-08-28T21:37:06.405Z,61.72
2022-08-28T21:39:33.137Z,61.88
2022-08-28T21:41:59.758Z,61.65
2022-08-28T21:44:26.446Z,61.80
2022-08-28T21:46:53.241Z,61.70
2022-08-28T21:49:19.889Z,62.01
2022-08-28T21:51:46.391Z,62.01
2022-08-28T21:54:13.249Z,61.97
2022-08-28T21:56:39.970Z,62.01
2022-08-28T21:59:06.555Z,61.99
2022-08-28T22:01:33.225Z,61.91
2022-08-28T22:03:59.853Z,62.13
2022-08-28T22:06:26.898Z,62.17
2022-08-28T22:08:54.226Z,62.53
2022-08-28T22:11:24.855Z,62.56
2022-08-28T22:13:52.648Z,62.60
2022-08-28T22:16:19.985Z,62.45
2022-08-28T22:18:46.576Z,62.52
2022-08-28T22:21:33.440Z,62.66
2022-08-28T22:24:00.163Z,62.61
2022-08-28T22:26:27.610Z,62.48
2022-08-28T22:28:55.856Z,62.70
2022-08-28T22:31:22.917Z,62.81
2022-08-28T22:33:49.949Z,62.64
2022-08-28T22:36:17.467Z,62.36
2022-08-28T22:38:49.782Z,62.34
2022-08-28T22:41:20.294Z,62.63
2022-08-28T22:43:50.481Z,62.51
2022-08-28T22:46:18.800Z,62.44
2022-08-28T22:48:55.529Z,62.78
2022-08-28T22:51:22.574Z,62.98
2022-08-28T22:53:49.202Z,62.62
2022-08-28T22:56:16.804Z,62.71
2022-08-28T22:58:43.942Z,62.41
2022-08-28T23:01:15.243Z,62.91
2022-08-28T23:03:41.943Z,62.62
2022-08-28T23:06:08.638Z,62.75
2022-08-28T23:08:35.415Z,62.60
2022-08-28T23:11:02.285Z,62.45
2022-08-28T23:13:29.842Z,62.77
2022-08-28T23:15:56.577Z,62.89
2022-08-28T23:18:23.159Z,63.10
2022-08-28T23:20:50.735Z,63.15
2022-08-28T23:23:18.667Z,63.03
2022-08-28T23:25:45.225Z,62.86
2022-08-28T23:28:11.936Z,63.21
2022-08-28T23:30:39.175Z,63.29
2022-08-28T23:33:08.561Z,62.88
2022-08-28T23:35:35.635Z,62.82
2022-08-28T23:38:02.251Z,62.99
2022-08-28T23:40:30.583Z,63.03
2022-08-28T23:42:58.062Z,63.16
2022-08-28T23:45:26.156Z,63.26
2022-08-28T23:47:54.034Z,62.99
2022-08-28T23:50:22.658Z,63.15
2022-08-28T23:52:49.728Z,63.24
2022-08-28T23:55:18.193Z,63.03
2022-08-28T23:57:45.789Z,63.10
